Deerfield, Wisconsin
Current Conditions -  °F | °C
As of 1:53 PM on Monday 24 Nov 2014 (Local Time) from KMSN Reporting Station
Light Snow Light Snow  
Wind Chill: 21°   Ceiling: 1900
Heat Index: 30°   Visibility: 0.5mi
Dew Point: 27°   Wind: 10mph
Humidity: 88%   Direction: 260°W
Pressure: 29.32"   Gusts: 20mph
Location:  43.05°N, 89.08°W
Report Text: KMSN 241953Z 26009G17KT 1/2SM R36/4500VP6000FT -SN FZFG SCT010 OVC019 M01/M03 A2932 RMK AO2 TWR VIS 3/4 SLP935 P0001 T10111028
Loading
Personal Weather Stations






























Interactive Weather Map New forecast layout! Learn more

10-Day Weather Forecast

Advertisements
Track Severe Weather on mobile